sensor_id;sensor_type;location;lat;lon;timestamp;temperature;humidity
5041;DHT22;2539;52.568;13.364;2022-12-18T00:02:22;-3.50;99.90
5041;DHT22;2539;52.568;13.364;2022-12-18T00:04:48;-3.50;99.90
5041;DHT22;2539;52.568;13.364;2022-12-18T00:07:14;-3.50;99.90
5041;DHT22;2539;52.568;13.364;2022-12-18T00:09:40;-3.50;99.90
5041;DHT22;2539;52.568;13.364;2022-12-18T00:12:07;-3.50;99.90
5041;DHT22;2539;52.568;13.364;2022-12-18T00:14:33;-3.50;99.90
5041;DHT22;2539;52.568;13.364;2022-12-18T00:17:00;-3.50;99.90
5041;DHT22;2539;52.568;13.364;2022-12-18T00:19:27;-3.50;99.90
5041;DHT22;2539;52.568;13.364;2022-12-18T00:21:53;-3.50;99.90
5041;DHT22;2539;52.568;13.364;2022-12-18T00:24:20;-3.50;99.90
5041;DHT22;2539;52.568;13.364;2022-12-18T00:26:46;-3.40;99.90
5041;DHT22;2539;52.568;13.364;2022-12-18T00:29:13;-3.60;99.90
5041;DHT22;2539;52.568;13.364;2022-12-18T00:31:41;-3.60;99.90
5041;DHT22;2539;52.568;13.364;2022-12-18T00:34:10;-3.60;99.90
5041;DHT22;2539;52.568;13.364;2022-12-18T00:36:36;-3.70;99.90
5041;DHT22;2539;52.568;13.364;2022-12-18T00:39:04;-3.70;99.90
5041;DHT22;2539;52.568;13.364;2022-12-18T00:41:32;-3.70;99.90
5041;DHT22;2539;52.568;13.364;2022-12-18T00:44:17;-3.70;99.90
5041;DHT22;2539;52.568;13.364;2022-12-18T00:46:45;-3.70;99.90
5041;DHT22;2539;52.568;13.364;2022-12-18T00:49:13;-3.70;99.90
5041;DHT22;2539;52.568;13.364;2022-12-18T00:51:40;-3.70;99.90
5041;DHT22;2539;52.568;13.364;2022-12-18T00:54:06;-3.70;99.90
5041;DHT22;2539;52.568;13.364;2022-12-18T00:56:32;-3.70;99.90
5041;DHT22;2539;52.568;13.364;2022-12-18T00:59:00;-3.70;99.90
5041;DHT22;2539;52.568;13.364;2022-12-18T01:01:26;-3.70;99.90
5041;DHT22;2539;52.568;13.364;2022-12-18T01:04:02;-3.70;99.90
5041;DHT22;2539;52.568;13.364;2022-12-18T01:06:35;-3.70;99.90
5041;DHT22;2539;52.568;13.364;2022-12-18T01:09:02;-3.90;99.90
5041;DHT22;2539;52.568;13.364;2022-12-18T01:11:28;-3.80;99.90
5041;DHT22;2539;52.568;13.364;2022-12-18T01:13:54;-3.80;99.90
5041;DHT22;2539;52.568;13.364;2022-12-18T01:16:21;-3.80;99.90
5041;DHT22;2539;52.568;13.364;2022-12-18T01:18:51;-3.70;99.90
5041;DHT22;2539;52.568;13.364;2022-12-18T01:21:17;-3.70;99.90
5041;DHT22;2539;52.568;13.364;2022-12-18T01:23:43;-3.70;99.90
5041;DHT22;2539;52.568;13.364;2022-12-18T01:26:15;-3.80;99.90
5041;DHT22;2539;52.568;13.364;2022-12-18T01:28:43;-3.80;99.90
5041;DHT22;2539;52.568;13.364;2022-12-18T01:31:18;-3.80;99.90
5041;DHT22;2539;52.568;13.364;2022-12-18T01:33:45;-3.80;99.90
5041;DHT22;2539;52.568;13.364;2022-12-18T01:36:26;-3.90;99.90
5041;DHT22;2539;52.568;13.364;2022-12-18T01:38:52;-4.00;99.90
5041;DHT22;2539;52.568;13.364;2022-12-18T01:41:24;-3.90;99.90
5041;DHT22;2539;52.568;13.364;2022-12-18T01:43:57;-3.90;99.90
5041;DHT22;2539;52.568;13.364;2022-12-18T01:46:25;-3.90;99.90
5041;DHT22;2539;52.568;13.364;2022-12-18T01:48:56;-3.90;99.90
5041;DHT22;2539;52.568;13.364;2022-12-18T01:51:24;-3.90;99.90
5041;DHT22;2539;52.568;13.364;2022-12-18T01:53:51;-3.90;99.90
5041;DHT22;2539;52.568;13.364;2022-12-18T01:56:19;-3.90;99.90
5041;DHT22;2539;52.568;13.364;2022-12-18T01:59:00;-3.90;99.90
5041;DHT22;2539;52.568;13.364;2022-12-18T02:01:29;-3.90;99.90
5041;DHT22;2539;52.568;13.364;2022-12-18T02:04:23;-3.90;99.90
5041;DHT22;2539;52.568;13.364;2022-12-18T02:12:25;-4.20;99.90
5041;DHT22;2539;52.568;13.364;2022-12-18T02:15:13;-4.30;99.90
5041;DHT22;2539;52.568;13.364;2022-12-18T02:17:50;-4.30;99.90
5041;DHT22;2539;52.568;13.364;2022-12-18T02:20:32;-4.20;99.90
5041;DHT22;2539;52.568;13.364;2022-12-18T02:23:20;-4.20;99.90
5041;DHT22;2539;52.568;13.364;2022-12-18T02:26:15;-4.20;99.90
5041;DHT22;2539;52.568;13.364;2022-12-18T02:29:09;-4.20;99.90
5041;DHT22;2539;52.568;13.364;2022-12-18T02:31:42;-4.30;99.90
5041;DHT22;2539;52.568;13.364;2022-12-18T02:34:10;-4.30;99.90
5041;DHT22;2539;52.568;13.364;2022-12-18T02:36:40;-4.30;99.90
5041;DHT22;2539;52.568;13.364;2022-12-18T02:39:10;-4.20;99.90
5041;DHT22;2539;52.568;13.364;2022-12-18T02:41:37;-4.20;99.90
5041;DHT22;2539;52.568;13.364;2022-12-18T02:44:11;-4.10;99.90
5041;DHT22;2539;52.568;13.364;2022-12-18T02:46:41;-4.10;99.90
5041;DHT22;2539;52.568;13.364;2022-12-18T02:49:23;-4.20;99.90
5041;DHT22;2539;52.568;13.364;2022-12-18T02:52:05;-4.20;99.90
5041;DHT22;2539;52.568;13.364;2022-12-18T02:54:49;-4.20;99.90
5041;DHT22;2539;52.568;13.364;2022-12-18T02:59:58;-4.10;99.90
5041;DHT22;2539;52.568;13.364;2022-12-18T03:02:36;-4.10;99.90
5041;DHT22;2539;52.568;13.364;2022-12-18T03:05:31;-2.60;99.90
5041;DHT22;2539;52.568;13.364;2022-12-18T03:08:08;-4.10;99.90
5041;DHT22;2539;52.568;13.364;2022-12-18T03:10:41;-4.10;99.90
5041;DHT22;2539;52.568;13.364;2022-12-18T03:13:27;-4.10;99.90
5041;DHT22;2539;52.568;13.364;2022-12-18T03:15:55;-4.20;99.90
5041;DHT22;2539;52.568;13.364;2022-12-18T03:18:30;-4.10;99.90
5041;DHT22;2539;52.568;13.364;2022-12-18T03:21:00;-4.10;99.90
5041;DHT22;2539;52.568;13.364;2022-12-18T03:23:35;-4.10;99.90
5041;DHT22;2539;52.568;13.364;2022-12-18T03:26:07;-4.20;99.90
5041;DHT22;2539;52.568;13.364;2022-12-18T03:28:37;-4.20;99.90
5041;DHT22;2539;52.568;13.364;2022-12-18T03:31:06;-4.20;99.90
5041;DHT22;2539;52.568;13.364;2022-12-18T03:34:14;-4.20;99.90
5041;DHT22;2539;52.568;13.364;2022-12-18T03:36:32;-4.30;99.90
5041;DHT22;2539;52.568;13.364;2022-12-18T03:38:58;-4.30;99.90
5041;DHT22;2539;52.568;13.364;2022-12-18T03:41:31;-4.30;99.90
5041;DHT22;2539;52.568;13.364;2022-12-18T03:44:09;-4.30;99.90
5041;DHT22;2539;52.568;13.364;2022-12-18T03:49:35;-4.30;99.90
5041;DHT22;2539;52.568;13.364;2022-12-18T03:52:12;-4.30;99.90
5041;DHT22;2539;52.568;13.364;2022-12-18T03:54:41;-4.30;99.90
5041;DHT22;2539;52.568;13.364;2022-12-18T03:57:18;-4.30;99.90
5041;DHT22;2539;52.568;13.364;2022-12-18T03:59:48;-4.40;99.90
5041;DHT22;2539;52.568;13.364;2022-12-18T04:02:16;-4.40;99.90
5041;DHT22;2539;52.568;13.364;2022-12-18T04:04:43;-4.40;99.90
5041;DHT22;2539;52.568;13.364;2022-12-18T04:07:12;-4.40;99.90
5041;DHT22;2539;52.568;13.364;2022-12-18T04:09:40;-4.50;99.90
5041;DHT22;2539;52.568;13.364;2022-12-18T04:12:08;-4.50;99.90
5041;DHT22;2539;52.568;13.364;2022-12-18T04:14:34;-4.50;99.90
5041;DHT22;2539;52.568;13.364;2022-12-18T04:17:02;-4.50;99.90
5041;DHT22;2539;52.568;13.364;2022-12-18T04:19:28;-4.50;99.90
5041;DHT22;2539;52.568;13.364;2022-12-18T04:21:55;-4.50;99.90
5041;DHT22;2539;52.568;13.364;2022-12-18T04:24:21;-4.40;99.90
5041;DHT22;2539;52.568;13.364;2022-12-18T04:26:47;-4.40;99.90
5041;DHT22;2539;52.568;13.364;2022-12-18T04:29:14;-4.40;99.90
5041;DHT22;2539;52.568;13.364;2022-12-18T04:31:40;-4.50;99.90
5041;DHT22;2539;52.568;13.364;2022-12-18T04:34:06;-4.50;99.90
5041;DHT22;2539;52.568;13.364;2022-12-18T04:36:32;-4.50;99.90
5041;DHT22;2539;52.568;13.364;2022-12-18T04:38:59;-4.50;99.90
5041;DHT22;2539;52.568;13.364;2022-12-18T04:41:25;-4.60;99.90
5041;DHT22;2539;52.568;13.364;2022-12-18T04:43:51;-4.60;99.90
5041;DHT22;2539;52.568;13.364;2022-12-18T04:46:17;-4.50;99.90
5041;DHT22;2539;52.568;13.364;2022-12-18T04:48:45;-4.60;99.90
5041;DHT22;2539;52.568;13.364;2022-12-18T04:51:12;-4.60;99.90
5041;DHT22;2539;52.568;13.364;2022-12-18T04:53:38;-4.60;99.90
5041;DHT22;2539;52.568;13.364;2022-12-18T04:56:06;-4.60;99.90
5041;DHT22;2539;52.568;13.364;2022-12-18T04:58:33;-4.60;99.90
5041;DHT22;2539;52.568;13.364;2022-12-18T05:00:59;-4.50;99.90
5041;DHT22;2539;52.568;13.364;2022-12-18T05:03:26;-4.60;99.90
5041;DHT22;2539;52.568;13.364;2022-12-18T05:05:52;-4.60;99.90
5041;DHT22;2539;52.568;13.364;2022-12-18T05:08:19;-4.70;99.90
5041;DHT22;2539;52.568;13.364;2022-12-18T05:10:45;-4.60;99.90
5041;DHT22;2539;52.568;13.364;2022-12-18T05:13:11;-4.80;99.90
5041;DHT22;2539;52.568;13.364;2022-12-18T05:15:37;-4.80;99.90
5041;DHT22;2539;52.568;13.364;2022-12-18T05:18:04;-4.80;99.90
5041;DHT22;2539;52.568;13.364;2022-12-18T05:20:31;-4.80;99.90
5041;DHT22;2539;52.568;13.364;2022-12-18T05:22:57;-4.80;99.90
5041;DHT22;2539;52.568;13.364;2022-12-18T05:25:24;-4.90;99.90
5041;DHT22;2539;52.568;13.364;2022-12-18T05:27:50;-4.90;99.90
5041;DHT22;2539;52.568;13.364;2022-12-18T05:30:16;-4.90;99.90
5041;DHT22;2539;52.568;13.364;2022-12-18T05:32:43;-4.80;99.90
5041;DHT22;2539;52.568;13.364;2022-12-18T05:35:11;-4.70;99.90
5041;DHT22;2539;52.568;13.364;2022-12-18T05:37:38;-4.90;99.90
5041;DHT22;2539;52.568;13.364;2022-12-18T05:40:05;-4.90;99.90
5041;DHT22;2539;52.568;13.364;2022-12-18T05:42:31;-4.90;99.90
5041;DHT22;2539;52.568;13.364;2022-12-18T05:44:56;-4.80;99.90
5041;DHT22;2539;52.568;13.364;2022-12-18T05:47:22;-4.80;99.90
5041;DHT22;2539;52.568;13.364;2022-12-18T05:49:47;-4.80;99.90
5041;DHT22;2539;52.568;13.364;2022-12-18T05:52:14;-4.80;99.90
5041;DHT22;2539;52.568;13.364;2022-12-18T05:54:40;-4.80;99.90
5041;DHT22;2539;52.568;13.364;2022-12-18T05:57:06;-4.80;99.90
5041;DHT22;2539;52.568;13.364;2022-12-18T05:59:32;-4.70;99.90
5041;DHT22;2539;52.568;13.364;2022-12-18T06:01:59;-4.70;99.90
5041;DHT22;2539;52.568;13.364;2022-12-18T06:04:27;-4.90;99.90
5041;DHT22;2539;52.568;13.364;2022-12-18T06:06:56;-4.90;99.90
5041;DHT22;2539;52.568;13.364;2022-12-18T06:09:22;-4.80;99.90
5041;DHT22;2539;52.568;13.364;2022-12-18T06:11:51;-4.80;99.90
5041;DHT22;2539;52.568;13.364;2022-12-18T06:14:16;-4.80;99.90
5041;DHT22;2539;52.568;13.364;2022-12-18T06:16:42;-4.80;99.90
5041;DHT22;2539;52.568;13.364;2022-12-18T06:19:14;-4.70;99.90
5041;DHT22;2539;52.568;13.364;2022-12-18T06:21:40;-4.70;99.90
5041;DHT22;2539;52.568;13.364;2022-12-18T06:24:06;-4.70;99.90
5041;DHT22;2539;52.568;13.364;2022-12-18T06:26:33;-4.70;99.90
5041;DHT22;2539;52.568;13.364;2022-12-18T06:28:59;-4.70;99.90
5041;DHT22;2539;52.568;13.364;2022-12-18T06:31:25;-4.70;99.90
5041;DHT22;2539;52.568;13.364;2022-12-18T06:33:52;-4.70;99.90
5041;DHT22;2539;52.568;13.364;2022-12-18T06:36:18;-4.90;99.90
5041;DHT22;2539;52.568;13.364;2022-12-18T06:38:45;-4.80;99.90
5041;DHT22;2539;52.568;13.364;2022-12-18T06:41:17;-4.70;99.90
5041;DHT22;2539;52.568;13.364;2022-12-18T06:43:44;-4.70;99.90
5041;DHT22;2539;52.568;13.364;2022-12-18T06:46:11;-4.70;99.90
5041;DHT22;2539;52.568;13.364;2022-12-18T06:48:38;-4.80;99.90
5041;DHT22;2539;52.568;13.364;2022-12-18T06:51:04;-4.70;99.90
5041;DHT22;2539;52.568;13.364;2022-12-18T06:53:32;-4.80;99.90
5041;DHT22;2539;52.568;13.364;2022-12-18T06:56:06;-4.80;99.90
5041;DHT22;2539;52.568;13.364;2022-12-18T06:58:32;-4.80;99.90
5041;DHT22;2539;52.568;13.364;2022-12-18T07:01:00;-4.70;99.90
5041;DHT22;2539;52.568;13.364;2022-12-18T07:03:27;-4.80;99.90
5041;DHT22;2539;52.568;13.364;2022-12-18T07:05:53;-4.80;99.90
5041;DHT22;2539;52.568;13.364;2022-12-18T07:08:19;-4.70;99.90
5041;DHT22;2539;52.568;13.364;2022-12-18T07:10:46;-4.80;99.90
5041;DHT22;2539;52.568;13.364;2022-12-18T07:13:12;-4.70;99.90
5041;DHT22;2539;52.568;13.364;2022-12-18T07:15:38;-4.70;99.90
5041;DHT22;2539;52.568;13.364;2022-12-18T07:18:04;-4.60;99.90
5041;DHT22;2539;52.568;13.364;2022-12-18T07:20:31;-3.90;99.90
5041;DHT22;2539;52.568;13.364;2022-12-18T07:22:57;-4.60;99.90
5041;DHT22;2539;52.568;13.364;2022-12-18T07:25:23;-4.50;99.90
5041;DHT22;2539;52.568;13.364;2022-12-18T07:27:50;-4.60;99.90
5041;DHT22;2539;52.568;13.364;2022-12-18T07:30:16;-4.50;99.90
5041;DHT22;2539;52.568;13.364;2022-12-18T07:32:42;-4.60;99.90
5041;DHT22;2539;52.568;13.364;2022-12-18T07:35:08;-4.60;99.90
5041;DHT22;2539;52.568;13.364;2022-12-18T07:37:35;-4.60;99.90
5041;DHT22;2539;52.568;13.364;2022-12-18T07:40:01;-4.90;99.90
5041;DHT22;2539;52.568;13.364;2022-12-18T07:42:27;-4.60;99.90
5041;DHT22;2539;52.568;13.364;2022-12-18T07:45:00;-4.50;99.90
5041;DHT22;2539;52.568;13.364;2022-12-18T07:47:28;-4.50;99.90
5041;DHT22;2539;52.568;13.364;2022-12-18T07:49:54;-4.50;99.90
5041;DHT22;2539;52.568;13.364;2022-12-18T07:52:21;-4.40;99.90
5041;DHT22;2539;52.568;13.364;2022-12-18T07:54:47;-4.40;99.90
5041;DHT22;2539;52.568;13.364;2022-12-18T07:57:16;-4.20;99.90
5041;DHT22;2539;52.568;13.364;2022-12-18T07:59:42;-4.30;99.90
5041;DHT22;2539;52.568;13.364;2022-12-18T08:02:08;-4.10;99.90
5041;DHT22;2539;52.568;13.364;2022-12-18T08:04:36;-4.50;99.90
5041;DHT22;2539;52.568;13.364;2022-12-18T08:07:02;-4.20;99.90
5041;DHT22;2539;52.568;13.364;2022-12-18T08:09:29;-4.20;99.90
5041;DHT22;2539;52.568;13.364;2022-12-18T08:11:55;-4.10;99.90
5041;DHT22;2539;52.568;13.364;2022-12-18T08:14:21;-4.10;99.90
5041;DHT22;2539;52.568;13.364;2022-12-18T08:16:47;-4.10;99.90
5041;DHT22;2539;52.568;13.364;2022-12-18T08:19:14;-4.10;99.90
5041;DHT22;2539;52.568;13.364;2022-12-18T08:21:40;-4.10;99.90
5041;DHT22;2539;52.568;13.364;2022-12-18T08:24:06;-4.10;99.90
5041;DHT22;2539;52.568;13.364;2022-12-18T08:26:34;-4.00;99.90
5041;DHT22;2539;52.568;13.364;2022-12-18T08:29:00;-4.00;99.90
5041;DHT22;2539;52.568;13.364;2022-12-18T08:31:27;-4.00;99.90
5041;DHT22;2539;52.568;13.364;2022-12-18T08:33:54;-4.00;99.90
5041;DHT22;2539;52.568;13.364;2022-12-18T08:36:20;-3.90;99.90
5041;DHT22;2539;52.568;13.364;2022-12-18T08:38:46;-3.90;99.90
5041;DHT22;2539;52.568;13.364;2022-12-18T08:41:14;-3.90;99.90
5041;DHT22;2539;52.568;13.364;2022-12-18T08:43:42;-3.80;99.90
5041;DHT22;2539;52.568;13.364;2022-12-18T08:46:31;-3.90;99.90
5041;DHT22;2539;52.568;13.364;2022-12-18T08:48:58;-3.80;99.90
5041;DHT22;2539;52.568;13.364;2022-12-18T08:51:24;-2.80;99.90
5041;DHT22;2539;52.568;13.364;2022-12-18T08:53:50;-3.70;99.90
5041;DHT22;2539;52.568;13.364;2022-12-18T08:56:17;-3.70;99.90
5041;DHT22;2539;52.568;13.364;2022-12-18T08:58:43;-3.70;99.90
5041;DHT22;2539;52.568;13.364;2022-12-18T09:01:11;-3.90;99.90
5041;DHT22;2539;52.568;13.364;2022-12-18T09:03:38;-3.70;99.90
5041;DHT22;2539;52.568;13.364;2022-12-18T09:06:05;-3.70;99.90
5041;DHT22;2539;52.568;13.364;2022-12-18T09:08:35;-3.70;99.90
5041;DHT22;2539;52.568;13.364;2022-12-18T09:11:03;-3.60;99.90
5041;DHT22;2539;52.568;13.364;2022-12-18T09:13:29;-3.60;99.90
5041;DHT22;2539;52.568;13.364;2022-12-18T09:15:55;-3.60;99.90
5041;DHT22;2539;52.568;13.364;2022-12-18T09:18:23;-3.50;99.90
5041;DHT22;2539;52.568;13.364;2022-12-18T09:20:50;-3.60;99.90
5041;DHT22;2539;52.568;13.364;2022-12-18T09:23:18;-3.60;99.90
5041;DHT22;2539;52.568;13.364;2022-12-18T09:25:44;-3.60;99.90
5041;DHT22;2539;52.568;13.364;2022-12-18T09:28:18;-3.60;99.90
5041;DHT22;2539;52.568;13.364;2022-12-18T09:30:48;-3.60;99.90
5041;DHT22;2539;52.568;13.364;2022-12-18T09:33:15;-3.60;99.90
5041;DHT22;2539;52.568;13.364;2022-12-18T09:35:43;-3.50;99.90
5041;DHT22;2539;52.568;13.364;2022-12-18T09:38:14;-3.50;99.90
5041;DHT22;2539;52.568;13.364;2022-12-18T09:40:52;-3.40;99.90
5041;DHT22;2539;52.568;13.364;2022-12-18T09:43:29;-3.50;99.90
5041;DHT22;2539;52.568;13.364;2022-12-18T09:46:03;-1.60;99.90
5041;DHT22;2539;52.568;13.364;2022-12-18T09:48:36;-3.50;99.90
5041;DHT22;2539;52.568;13.364;2022-12-18T09:51:13;-3.40;99.90
5041;DHT22;2539;52.568;13.364;2022-12-18T09:53:41;-3.40;99.90
5041;DHT22;2539;52.568;13.364;2022-12-18T09:56:15;-3.40;99.90
5041;DHT22;2539;52.568;13.364;2022-12-18T09:58:48;-3.30;99.90
5041;DHT22;2539;52.568;13.364;2022-12-18T10:01:21;-3.20;99.90
5041;DHT22;2539;52.568;13.364;2022-12-18T10:03:47;-3.20;99.90
5041;DHT22;2539;52.568;13.364;2022-12-18T10:09:13;-3.00;99.90
5041;DHT22;2539;52.568;13.364;2022-12-18T10:12:02;-2.90;99.90
5041;DHT22;2539;52.568;13.364;2022-12-18T10:14:55;-2.90;99.90
5041;DHT22;2539;52.568;13.364;2022-12-18T10:17:36;-2.90;99.90
5041;DHT22;2539;52.568;13.364;2022-12-18T10:23:02;-2.70;99.90
5041;DHT22;2539;52.568;13.364;2022-12-18T10:25:55;-2.80;99.90
5041;DHT22;2539;52.568;13.364;2022-12-18T10:28:25;-2.80;99.90
5041;DHT22;2539;52.568;13.364;2022-12-18T10:30:52;-2.60;99.90
5041;DHT22;2539;52.568;13.364;2022-12-18T10:33:23;-2.70;99.90
5041;DHT22;2539;52.568;13.364;2022-12-18T10:35:53;-1.80;99.90
5041;DHT22;2539;52.568;13.364;2022-12-18T10:38:22;-2.60;99.90
5041;DHT22;2539;52.568;13.364;2022-12-18T10:40:58;-2.50;99.90
5041;DHT22;2539;52.568;13.364;2022-12-18T10:43:26;-2.60;99.90
5041;DHT22;2539;52.568;13.364;2022-12-18T10:46:08;-2.50;99.90
5041;DHT22;2539;52.568;13.364;2022-12-18T10:48:46;-2.50;99.90
5041;DHT22;2539;52.568;13.364;2022-12-18T10:51:40;-2.50;99.90
5041;DHT22;2539;52.568;13.364;2022-12-18T10:54:17;-2.40;99.90
5041;DHT22;2539;52.568;13.364;2022-12-18T10:56:44;-2.40;99.90
5041;DHT22;2539;52.568;13.364;2022-12-18T10:59:13;-2.30;99.90
5041;DHT22;2539;52.568;13.364;2022-12-18T11:04:17;-2.10;99.90
5041;DHT22;2539;52.568;13.364;2022-12-18T11:07:02;-2.10;99.90
5041;DHT22;2539;52.568;13.364;2022-12-18T11:09:31;-2.10;99.90
5041;DHT22;2539;52.568;13.364;2022-12-18T11:12:00;-2.10;99.90
5041;DHT22;2539;52.568;13.364;2022-12-18T11:14:33;-2.10;99.90
5041;DHT22;2539;52.568;13.364;2022-12-18T11:17:00;-1.90;99.90
5041;DHT22;2539;52.568;13.364;2022-12-18T11:19:37;-2.00;99.90
5041;DHT22;2539;52.568;13.364;2022-12-18T11:22:28;-1.90;99.90
5041;DHT22;2539;52.568;13.364;2022-12-18T11:27:23;-1.90;99.90
5041;DHT22;2539;52.568;13.364;2022-12-18T11:29:50;-1.90;99.90
5041;DHT22;2539;52.568;13.364;2022-12-18T11:32:37;-1.90;99.90
5041;DHT22;2539;52.568;13.364;2022-12-18T11:35:21;-2.00;99.90
5041;DHT22;2539;52.568;13.364;2022-12-18T11:37:54;-2.10;99.90
5041;DHT22;2539;52.568;13.364;2022-12-18T11:40:32;-2.10;99.90
5041;DHT22;2539;52.568;13.364;2022-12-18T11:43:18;-2.10;99.90
5041;DHT22;2539;52.568;13.364;2022-12-18T11:45:54;-2.10;99.90
5041;DHT22;2539;52.568;13.364;2022-12-18T11:48:27;-2.00;99.90
5041;DHT22;2539;52.568;13.364;2022-12-18T11:50:56;-1.90;99.90
5041;DHT22;2539;52.568;13.364;2022-12-18T11:53:24;-1.70;99.90
5041;DHT22;2539;52.568;13.364;2022-12-18T12:01:45;-1.70;99.90
5041;DHT22;2539;52.568;13.364;2022-12-18T12:04:30;-1.90;99.90
5041;DHT22;2539;52.568;13.364;2022-12-18T12:10:09;-2.10;99.90
5041;DHT22;2539;52.568;13.364;2022-12-18T12:18:56;-2.30;99.90
5041;DHT22;2539;52.568;13.364;2022-12-18T12:21:46;-2.40;99.90
5041;DHT22;2539;52.568;13.364;2022-12-18T12:24:38;-2.40;99.90
5041;DHT22;2539;52.568;13.364;2022-12-18T12:30:06;-2.40;99.90
5041;DHT22;2539;52.568;13.364;2022-12-18T12:35:30;-2.40;99.90
5041;DHT22;2539;52.568;13.364;2022-12-18T12:38:13;-2.40;99.90
5041;DHT22;2539;52.568;13.364;2022-12-18T12:40:45;-2.40;99.90
5041;DHT22;2539;52.568;13.364;2022-12-18T12:43:27;-2.40;99.90
5041;DHT22;2539;52.568;13.364;2022-12-18T12:46:05;-2.40;99.90
5041;DHT22;2539;52.568;13.364;2022-12-18T12:51:22;-2.30;99.90
5041;DHT22;2539;52.568;13.364;2022-12-18T12:53:50;-2.30;99.90
5041;DHT22;2539;52.568;13.364;2022-12-18T12:56:20;-2.30;99.90
5041;DHT22;2539;52.568;13.364;2022-12-18T12:59:10;-2.30;99.90
5041;DHT22;2539;52.568;13.364;2022-12-18T13:01:48;-2.30;99.90
5041;DHT22;2539;52.568;13.364;2022-12-18T13:07:12;-2.20;99.90
5041;DHT22;2539;52.568;13.364;2022-12-18T13:13:02;-2.20;99.90
5041;DHT22;2539;52.568;13.364;2022-12-18T13:15:45;-2.30;99.90
5041;DHT22;2539;52.568;13.364;2022-12-18T13:25:55;-2.30;99.90
5041;DHT22;2539;52.568;13.364;2022-12-18T13:30:59;-2.20;99.90
5041;DHT22;2539;52.568;13.364;2022-12-18T13:41:53;-2.10;99.90
5041;DHT22;2539;52.568;13.364;2022-12-18T13:44:32;-2.20;99.90
5041;DHT22;2539;52.568;13.364;2022-12-18T13:46:59;-2.20;99.90
5041;DHT22;2539;52.568;13.364;2022-12-18T13:49:28;-2.20;99.90
5041;DHT22;2539;52.568;13.364;2022-12-18T13:51:56;-2.30;99.90
5041;DHT22;2539;52.568;13.364;2022-12-18T13:54:37;-2.40;99.90
5041;DHT22;2539;52.568;13.364;2022-12-18T13:57:23;-2.40;99.90
5041;DHT22;2539;52.568;13.364;2022-12-18T13:59:51;-2.40;99.90
5041;DHT22;2539;52.568;13.364;2022-12-18T14:02:22;-2.40;99.90
5041;DHT22;2539;52.568;13.364;2022-12-18T14:04:49;-2.40;99.90
5041;DHT22;2539;52.568;13.364;2022-12-18T14:07:24;-2.40;99.90
5041;DHT22;2539;52.568;13.364;2022-12-18T14:09:56;-2.50;99.90
5041;DHT22;2539;52.568;13.364;2022-12-18T14:12:28;-2.50;99.90
5041;DHT22;2539;52.568;13.364;2022-12-18T14:17:57;-2.70;99.90
5041;DHT22;2539;52.568;13.364;2022-12-18T14:20:25;-2.70;99.90
5041;DHT22;2539;52.568;13.364;2022-12-18T14:22:52;-1.40;99.90
5041;DHT22;2539;52.568;13.364;2022-12-18T14:25:27;-2.80;99.90
5041;DHT22;2539;52.568;13.364;2022-12-18T14:28:12;-2.80;99.90
5041;DHT22;2539;52.568;13.364;2022-12-18T14:30:44;-2.80;99.90
5041;DHT22;2539;52.568;13.364;2022-12-18T14:33:13;-2.80;99.90
5041;DHT22;2539;52.568;13.364;2022-12-18T14:35:43;-2.70;99.90
5041;DHT22;2539;52.568;13.364;2022-12-18T14:38:38;-2.80;99.90
5041;DHT22;2539;52.568;13.364;2022-12-18T14:41:09;-2.80;99.90
5041;DHT22;2539;52.568;13.364;2022-12-18T14:43:38;-2.20;99.90
5041;DHT22;2539;52.568;13.364;2022-12-18T14:46:25;-2.70;99.90
5041;DHT22;2539;52.568;13.364;2022-12-18T14:48:52;-2.70;99.90
5041;DHT22;2539;52.568;13.364;2022-12-18T14:51:24;-2.70;99.90
5041;DHT22;2539;52.568;13.364;2022-12-18T14:53:59;-4.10;99.90
5041;DHT22;2539;52.568;13.364;2022-12-18T14:56:31;-2.70;99.90
5041;DHT22;2539;52.568;13.364;2022-12-18T14:59:03;-2.70;99.90
5041;DHT22;2539;52.568;13.364;2022-12-18T15:01:34;-2.80;99.90
5041;DHT22;2539;52.568;13.364;2022-12-18T15:04:01;-2.80;99.90
5041;DHT22;2539;52.568;13.364;2022-12-18T15:06:46;-2.80;99.90
5041;DHT22;2539;52.568;13.364;2022-12-18T15:09:22;-2.80;99.90
5041;DHT22;2539;52.568;13.364;2022-12-18T15:11:55;-2.80;99.90
5041;DHT22;2539;52.568;13.364;2022-12-18T15:16:51;-2.90;99.90
5041;DHT22;2539;52.568;13.364;2022-12-18T15:19:19;-3.00;99.90
5041;DHT22;2539;52.568;13.364;2022-12-18T15:21:46;-2.80;99.90
5041;DHT22;2539;52.568;13.364;2022-12-18T15:24:24;-3.00;99.90
5041;DHT22;2539;52.568;13.364;2022-12-18T15:26:52;-3.00;99.90
5041;DHT22;2539;52.568;13.364;2022-12-18T15:29:23;-2.90;99.90
5041;DHT22;2539;52.568;13.364;2022-12-18T15:32:00;-3.00;99.90
5041;DHT22;2539;52.568;13.364;2022-12-18T15:34:27;-3.00;99.90
5041;DHT22;2539;52.568;13.364;2022-12-18T15:36:53;-3.00;99.90
5041;DHT22;2539;52.568;13.364;2022-12-18T15:39:20;-2.80;99.90
5041;DHT22;2539;52.568;13.364;2022-12-18T15:41:46;-3.00;99.90
5041;DHT22;2539;52.568;13.364;2022-12-18T15:44:38;-3.00;99.90
5041;DHT22;2539;52.568;13.364;2022-12-18T15:47:11;-3.10;99.90
5041;DHT22;2539;52.568;13.364;2022-12-18T15:49:38;-3.10;99.90
5041;DHT22;2539;52.568;13.364;2022-12-18T15:52:04;-3.10;99.90
5041;DHT22;2539;52.568;13.364;2022-12-18T15:54:31;-3.10;99.90
5041;DHT22;2539;52.568;13.364;2022-12-18T15:57:16;-3.20;99.90
5041;DHT22;2539;52.568;13.364;2022-12-18T15:59:53;-3.00;99.90
5041;DHT22;2539;52.568;13.364;2022-12-18T16:02:20;-3.00;99.90
5041;DHT22;2539;52.568;13.364;2022-12-18T16:04:50;-3.00;99.90
5041;DHT22;2539;52.568;13.364;2022-12-18T16:07:16;-2.90;99.90
5041;DHT22;2539;52.568;13.364;2022-12-18T16:09:42;-2.90;99.90
5041;DHT22;2539;52.568;13.364;2022-12-18T16:12:21;-3.00;99.90
5041;DHT22;2539;52.568;13.364;2022-12-18T16:14:48;-3.00;99.90
5041;DHT22;2539;52.568;13.364;2022-12-18T16:17:14;-3.00;99.90
5041;DHT22;2539;52.568;13.364;2022-12-18T16:19:44;-3.00;99.90
5041;DHT22;2539;52.568;13.364;2022-12-18T16:22:26;-3.00;99.90
5041;DHT22;2539;52.568;13.364;2022-12-18T16:24:53;-3.00;99.90
5041;DHT22;2539;52.568;13.364;2022-12-18T16:27:20;-3.10;99.90
5041;DHT22;2539;52.568;13.364;2022-12-18T16:29:47;-3.10;99.90
5041;DHT22;2539;52.568;13.364;2022-12-18T16:32:16;-3.10;99.90
5041;DHT22;2539;52.568;13.364;2022-12-18T16:34:42;-3.20;99.90
5041;DHT22;2539;52.568;13.364;2022-12-18T16:37:11;-3.20;99.90
5041;DHT22;2539;52.568;13.364;2022-12-18T16:39:38;-3.20;99.90
5041;DHT22;2539;52.568;13.364;2022-12-18T16:42:08;-3.10;99.90
5041;DHT22;2539;52.568;13.364;2022-12-18T16:44:36;-3.10;99.90
5041;DHT22;2539;52.568;13.364;2022-12-18T16:47:02;-3.10;99.90
5041;DHT22;2539;52.568;13.364;2022-12-18T16:49:29;-3.10;99.90
5041;DHT22;2539;52.568;13.364;2022-12-18T16:51:55;-3.00;99.90
5041;DHT22;2539;52.568;13.364;2022-12-18T16:54:21;-3.00;99.90
5041;DHT22;2539;52.568;13.364;2022-12-18T16:56:50;-2.90;99.90
5041;DHT22;2539;52.568;13.364;2022-12-18T16:59:17;-3.00;99.90
5041;DHT22;2539;52.568;13.364;2022-12-18T17:01:43;-3.00;99.90
5041;DHT22;2539;52.568;13.364;2022-12-18T17:04:09;-3.10;99.90
5041;DHT22;2539;52.568;13.364;2022-12-18T17:06:39;-3.10;99.90
5041;DHT22;2539;52.568;13.364;2022-12-18T17:09:10;-3.20;99.90
5041;DHT22;2539;52.568;13.364;2022-12-18T17:11:37;-3.30;99.90
5041;DHT22;2539;52.568;13.364;2022-12-18T17:14:08;-3.40;99.90
5041;DHT22;2539;52.568;13.364;2022-12-18T17:16:34;-3.60;99.90
5041;DHT22;2539;52.568;13.364;2022-12-18T17:19:00;-3.60;99.90
5041;DHT22;2539;52.568;13.364;2022-12-18T17:21:27;-3.60;99.90
5041;DHT22;2539;52.568;13.364;2022-12-18T17:23:54;-3.70;99.90